Time;durP1;ratioP1;P1;durP2;ratioP2;P2;SDS_P1;SDS_P2;PMS_P1;PMS_P2;Temp;Humidity;BMP_temperature;BMP_pressure;BME280_temperature;BME280_humidity;BME280_pressure;Samples;Min_cycle;Max_cycle;Signal;HPM_P1;HPM_P2
2024/04/14 00:00:14;;;;;;;1.50;1.40;;;18.80;99.90;;;;;;5326885;26;20479;-72
2024/04/14 00:02:39;;;;;;;7.53;1.70;;;18.80;99.90;;;;;;5320578;26;20857;-72
2024/04/14 00:05:09;;;;;;;2.60;1.57;;;18.60;99.90;;;;;;5321221;26;20546;-73
2024/04/14 00:07:37;;;;;;;6.57;1.37;;;18.60;99.90;;;;;;5324380;26;20310;-72
2024/04/14 00:10:05;;;;;;;2.20;1.20;;;18.50;99.90;;;;;;5322344;26;20703;-72
2024/04/14 00:12:32;;;;;;;7.70;1.30;;;18.50;99.90;;;;;;5323238;26;20478;-72
2024/04/14 00:15:03;;;;;;;3.03;1.93;;;18.40;99.90;;;;;;5319978;26;20607;-72
2024/04/14 00:17:29;;;;;;;10.00;1.47;;;18.40;99.90;;;;;;5321079;26;20525;-73
2024/04/14 00:19:57;;;;;;;2.80;1.50;;;18.40;99.90;;;;;;5326277;26;20550;-72
2024/04/14 00:22:23;;;;;;;3.20;1.50;;;18.30;99.90;;;;;;5322118;26;20315;-72
2024/04/14 00:24:51;;;;;;;6.80;1.50;;;18.30;99.90;;;;;;5317417;26;21168;-73
2024/04/14 00:27:17;;;;;;;1.40;1.10;;;18.20;99.90;;;;;;5322762;26;20241;-73
2024/04/14 00:29:45;;;;;;;2.57;1.40;;;18.20;99.90;;;;;;5327157;26;20467;-71
2024/04/14 00:32:14;;;;;;;2.27;1.30;;;18.10;99.90;;;;;;5328011;26;20476;-72
2024/04/14 00:34:43;;;;;;;5.73;1.70;;;18.00;99.90;;;;;;5316515;26;20479;-72
2024/04/14 00:37:08;;;;;;;3.10;1.57;;;18.00;99.90;;;;;;5315982;26;21271;-72
2024/04/14 00:39:37;;;;;;;2.70;1.70;;;17.90;99.90;;;;;;5308598;26;20522;-72
2024/04/14 00:42:03;;;;;;;2.13;1.40;;;17.70;99.90;;;;;;5314241;26;20302;-72
2024/04/14 00:44:31;;;;;;;3.17;1.90;;;17.70;99.90;;;;;;5308903;26;20469;-72
2024/04/14 00:46:57;;;;;;;2.03;1.30;;;17.40;99.90;;;;;;5318604;26;21110;-72
2024/04/14 00:49:30;;;;;;;3.83;2.30;;;17.50;99.90;;;;;;5316054;26;20539;-72
2024/04/14 00:51:59;;;;;;;5.57;1.50;;;17.40;99.90;;;;;;5321619;26;21758;-72
2024/04/14 00:54:28;;;;;;;2.00;1.67;;;17.40;99.90;;;;;;5312780;26;20535;-73
2024/04/14 00:56:54;;;;;;;5.20;1.30;;;17.40;99.90;;;;;;5319587;26;21031;-73
2024/04/14 00:59:22;;;;;;;2.73;1.30;;;17.30;99.90;;;;;;5317971;26;20564;-73
2024/04/14 01:01:48;;;;;;;2.03;1.07;;;17.20;99.90;;;;;;5325854;26;20302;-73
2024/04/14 01:04:17;;;;;;;2.67;1.60;;;17.10;99.90;;;;;;5315175;26;20487;-73
2024/04/14 01:06:46;;;;;;;16.03;1.70;;;17.10;99.90;;;;;;5317951;26;20487;-73
2024/04/14 01:09:15;;;;;;;2.70;1.47;;;17.10;99.90;;;;;;5309641;26;20545;-74
2024/04/14 01:11:41;;;;;;;4.43;1.30;;;17.00;99.90;;;;;;5315956;26;20495;-73
2024/04/14 01:14:10;;;;;;;1.77;1.23;;;17.00;99.90;;;;;;5309580;26;21020;-73
2024/04/14 01:16:36;;;;;;;2.03;1.60;;;17.00;99.90;;;;;;5315782;26;20473;-73
2024/04/14 01:19:06;;;;;;;3.00;1.57;;;16.90;99.90;;;;;;5308095;26;21546;-73
2024/04/14 01:21:32;;;;;;;3.27;1.30;;;16.90;99.90;;;;;;5317461;26;20987;-74
2024/04/14 01:24:03;;;;;;;1.50;1.30;;;16.80;99.90;;;;;;5318567;26;20463;-73
2024/04/14 01:26:32;;;;;;;2.90;1.40;;;16.80;99.90;;;;;;5316086;26;20551;-73
2024/04/14 01:29:00;;;;;;;1.50;1.17;;;16.70;99.90;;;;;;5313833;26;20476;-73
2024/04/14 01:31:26;;;;;;;1.57;1.40;;;16.70;99.90;;;;;;5321759;26;20562;-73
2024/04/14 01:33:55;;;;;;;1.70;1.50;;;16.70;99.90;;;;;;5313515;26;20825;-73
2024/04/14 01:36:20;;;;;;;2.47;1.57;;;16.60;99.90;;;;;;5314404;26;20245;-73
2024/04/14 01:38:49;;;;;;;3.67;1.40;;;16.60;99.90;;;;;;5311694;26;20537;-73
2024/04/14 01:41:15;;;;;;;3.53;1.70;;;16.50;99.90;;;;;;5315532;26;20313;-72
2024/04/14 01:43:46;;;;;;;4.00;1.50;;;16.40;99.90;;;;;;5310852;26;20734;-72
2024/04/14 01:46:12;;;;;;;1.70;1.57;;;16.40;99.90;;;;;;5317817;26;20320;-72
2024/04/14 01:48:40;;;;;;;1.90;1.70;;;16.30;99.90;;;;;;5322385;26;20475;-73
2024/04/14 01:51:06;;;;;;;3.50;1.50;;;16.30;99.90;;;;;;5328343;26;20252;-73
2024/04/14 01:53:34;;;;;;;6.20;1.53;;;16.30;99.90;;;;;;5314621;26;20896;-74
2024/04/14 01:56:00;;;;;;;1.50;1.30;;;16.30;99.90;;;;;;5323043;26;20267;-74
2024/04/14 01:58:29;;;;;;;2.33;1.83;;;16.20;99.90;;;;;;5316561;26;20924;-73
2024/04/14 02:00:57;;;;;;;4.33;1.80;;;16.10;99.90;;;;;;5323551;26;20233;-73
2024/04/14 02:03:26;;;;;;;1.30;1.10;;;16.10;99.90;;;;;;5305920;26;20483;-73
2024/04/14 02:05:59;;;;;;;2.43;1.60;;;16.20;99.90;;;;;;5315690;26;20779;-72
2024/04/14 02:08:28;;;;;;;2.53;2.33;;;16.20;99.90;;;;;;5309869;26;20479;-73
2024/04/14 02:10:58;;;;;;;1.77;1.20;;;16.20;99.90;;;;;;5304375;26;20475;-72
2024/04/14 02:13:26;;;;;;;3.97;1.80;;;16.20;99.90;;;;;;5312783;26;20486;-72
2024/04/14 02:15:54;;;;;;;3.00;1.20;;;16.30;99.90;;;;;;5309985;26;20487;-73
2024/04/14 02:18:23;;;;;;;3.40;1.73;;;16.30;99.90;;;;;;5321065;26;20607;-73
2024/04/14 02:20:51;;;;;;;5.07;1.73;;;16.30;99.90;;;;;;5318326;26;20798;-73
2024/04/14 02:23:17;;;;;;;6.20;1.67;;;16.30;99.90;;;;;;5317181;26;20604;-72
2024/04/14 02:25:56;;;;;;;2.27;1.47;;;16.30;99.90;;;;;;5310130;26;20495;-72
2024/04/14 02:28:22;;;;;;;3.07;2.10;;;16.30;99.90;;;;;;5314982;26;20550;-72
2024/04/14 02:30:50;;;;;;;4.37;1.60;;;16.30;99.90;;;;;;5318498;26;20602;-73
2024/04/14 02:33:16;;;;;;;2.37;1.40;;;16.30;99.90;;;;;;5318934;26;20233;-74
2024/04/14 02:35:54;;;;;;;9.47;2.13;;;16.30;99.90;;;;;;5311662;26;20479;-74
2024/04/14 02:38:20;;;;;;;1.70;1.50;;;16.40;99.90;;;;;;5320104;26;20609;-72
2024/04/14 02:40:57;;;;;;;2.03;1.40;;;16.40;99.90;;;;;;5316749;26;20471;-72
2024/04/14 02:43:23;;;;;;;4.23;1.93;;;16.40;99.90;;;;;;5321967;26;20312;-72
2024/04/14 02:45:51;;;;;;;3.60;1.80;;;16.40;99.90;;;;;;5319359;26;20598;-72
2024/04/14 02:48:18;;;;;;;2.40;1.57;;;16.20;99.90;;;;;;5316012;26;20245;-73
2024/04/14 02:50:49;;;;;;;3.63;1.87;;;16.10;99.90;;;;;;5318760;26;20479;-72
2024/04/14 02:53:15;;;;;;;2.83;1.87;;;16.20;99.90;;;;;;5323792;26;20586;-72
2024/04/14 02:55:43;;;;;;;3.33;1.50;;;16.10;99.90;;;;;;5311538;26;21080;-72
2024/04/14 02:58:10;;;;;;;3.80;2.37;;;16.20;99.90;;;;;;5327710;26;20495;-73
2024/04/14 03:00:38;;;;;;;1.73;1.40;;;16.20;99.90;;;;;;5325965;26;20471;-72
2024/04/14 03:03:10;;;;;;;4.50;2.03;;;16.10;99.90;;;;;;5329095;26;20533;-73
2024/04/14 03:05:35;;;;;;;10.83;2.07;;;16.00;99.90;;;;;;5319397;26;20479;-72
2024/04/14 03:08:07;;;;;;;2.03;1.60;;;16.00;99.90;;;;;;5316949;26;20549;-72
2024/04/14 03:10:33;;;;;;;4.40;2.17;;;15.90;99.90;;;;;;5316722;26;20681;-72
2024/04/14 03:13:01;;;;;;;2.40;1.80;;;15.90;99.90;;;;;;5318812;26;20760;-72
2024/04/14 03:15:27;;;;;;;1.40;1.30;;;15.90;99.90;;;;;;5319053;26;20491;-72
2024/04/14 03:17:56;;;;;;;13.37;2.40;;;15.90;99.90;;;;;;5322807;26;20472;-73
2024/04/14 03:20:22;;;;;;;3.03;1.73;;;15.90;99.90;;;;;;5318034;26;20368;-73
2024/04/14 03:22:50;;;;;;;2.33;1.53;;;15.80;99.90;;;;;;5310830;26;20471;-72
2024/04/14 03:25:18;;;;;;;2.60;1.90;;;15.70;99.90;;;;;;5314904;26;20274;-73
2024/04/14 03:27:47;;;;;;;3.10;1.97;;;15.60;99.90;;;;;;5329972;26;20463;-73
2024/04/14 03:30:13;;;;;;;4.50;2.40;;;15.70;99.90;;;;;;5327051;26;20563;-73
2024/04/14 03:32:42;;;;;;;4.30;1.70;;;15.70;99.90;;;;;;5308309;26;20535;-72
2024/04/14 03:35:07;;;;;;;4.33;2.00;;;15.70;99.90;;;;;;5320347;26;20623;-72
2024/04/14 03:37:37;;;;;;;2.37;1.73;;;15.60;99.90;;;;;;5322396;26;20471;-72
2024/04/14 03:40:06;;;;;;;2.40;1.50;;;15.60;99.90;;;;;;5325208;26;20257;-73
2024/04/14 03:42:37;;;;;;;5.53;2.47;;;15.60;99.90;;;;;;5324024;26;20573;-72
2024/04/14 03:45:08;;;;;;;2.43;1.40;;;15.50;99.90;;;;;;5319964;26;20629;-72
2024/04/14 03:47:36;;;;;;;7.07;2.17;;;15.40;99.90;;;;;;5317576;26;21750;-72
2024/04/14 03:50:05;;;;;;;4.60;1.90;;;15.40;99.90;;;;;;5330962;26;20491;-72
2024/04/14 03:52:31;;;;;;;3.30;1.90;;;15.50;99.90;;;;;;5321653;26;20475;-72
2024/04/14 03:55:01;;;;;;;6.27;1.93;;;15.40;99.90;;;;;;5316767;26;20507;-72
2024/04/14 03:57:26;;;;;;;3.87;2.13;;;15.40;99.90;;;;;;5319064;26;20548;-72
2024/04/14 03:59:57;;;;;;;13.17;4.83;;;15.60;99.90;;;;;;5322282;26;20547;-72
2024/04/14 04:02:23;;;;;;;4.10;1.90;;;15.60;99.90;;;;;;5321851;26;20265;-72
2024/04/14 04:04:52;;;;;;;7.20;2.77;;;15.50;99.90;;;;;;5312006;26;20976;-73
2024/04/14 04:07:17;;;;;;;14.87;3.17;;;15.50;99.90;;;;;;5322820;26;20249;-73
2024/04/14 04:09:46;;;;;;;5.10;3.67;;;15.60;99.90;;;;;;5308068;26;20480;-73
2024/04/14 04:12:15;;;;;;;6.70;2.20;;;15.60;99.90;;;;;;5322668;26;20312;-73
2024/04/14 04:14:43;;;;;;;7.13;2.53;;;15.50;99.90;;;;;;5301444;26;20663;-74
2024/04/14 04:17:12;;;;;;;4.90;2.23;;;15.60;99.90;;;;;;5316541;26;20502;-73
2024/04/14 04:19:40;;;;;;;4.50;2.17;;;15.50;99.90;;;;;;5314314;26;20474;-73
2024/04/14 04:22:06;;;;;;;5.97;3.67;;;15.30;99.90;;;;;;5321636;26;20739;-72
2024/04/14 04:24:35;;;;;;;9.37;3.50;;;15.20;99.90;;;;;;5312727;26;20558;-72
2024/04/14 04:27:00;;;;;;;12.70;3.07;;;15.10;99.90;;;;;;5314162;26;20287;-73
2024/04/14 04:29:29;;;;;;;4.43;2.23;;;15.10;99.90;;;;;;5325419;26;20451;-74
2024/04/14 04:31:55;;;;;;;18.73;2.87;;;15.10;99.90;;;;;;5312227;26;20245;-73
2024/04/14 04:34:28;;;;;;;2.67;1.47;;;15.00;99.90;;;;;;5312686;26;20555;-73
2024/04/14 04:36:54;;;;;;;7.53;3.73;;;15.00;99.90;;;;;;5319454;26;20617;-73
2024/04/14 04:39:22;;;;;;;4.63;2.77;;;15.00;99.90;;;;;;5305475;26;20478;-74
2024/04/14 04:41:48;;;;;;;7.90;2.97;;;15.00;99.90;;;;;;5325351;26;20493;-73
2024/04/14 04:44:16;;;;;;;6.43;2.80;;;15.00;99.90;;;;;;5312066;26;20478;-74
2024/04/14 04:46:42;;;;;;;3.20;2.23;;;15.10;99.90;;;;;;5327311;26;20853;-73
2024/04/14 04:49:10;;;;;;;5.97;2.30;;;15.10;99.90;;;;;;5323326;26;20578;-73
2024/04/14 04:51:39;;;;;;;9.50;2.33;;;15.10;99.90;;;;;;5317933;26;22447;-73
2024/04/14 04:54:07;;;;;;;5.33;3.47;;;15.00;99.90;;;;;;5319565;26;20539;-73
2024/04/14 04:56:33;;;;;;;8.83;3.27;;;15.00;99.90;;;;;;5329971;26;20527;-73
2024/04/14 04:59:02;;;;;;;8.67;2.60;;;15.00;99.90;;;;;;5319004;26;20481;-73
2024/04/14 05:01:27;;;;;;;5.00;1.97;;;14.90;99.90;;;;;;5322029;26;21013;-73
2024/04/14 05:03:56;;;;;;;3.87;2.10;;;14.90;99.90;;;;;;5319625;26;20476;-73
2024/04/14 05:06:22;;;;;;;4.90;2.33;;;14.90;99.90;;;;;;5314189;26;20257;-73
2024/04/14 05:08:53;;;;;;;2.80;2.17;;;14.90;99.90;;;;;;5320348;26;20475;-73
2024/04/14 05:11:18;;;;;;;6.00;2.50;;;14.90;99.90;;;;;;5318618;26;20612;-73
2024/04/14 05:13:47;;;;;;;3.23;1.80;;;14.90;99.90;;;;;;5317219;26;20590;-73
2024/04/14 05:16:13;;;;;;;6.93;2.60;;;15.00;99.90;;;;;;5317146;26;20807;-72
2024/04/14 05:18:41;;;;;;;6.97;2.50;;;15.10;99.90;;;;;;5315788;26;20522;-72
2024/04/14 05:21:07;;;;;;;7.83;2.97;;;15.10;99.90;;;;;;5317716;26;20457;-73
2024/04/14 05:23:36;;;;;;;2.53;2.33;;;15.10;99.90;;;;;;5309802;26;21823;-73
2024/04/14 05:26:04;;;;;;;6.60;2.40;;;15.00;99.90;;;;;;5314284;26;20279;-72
2024/04/14 05:28:33;;;;;;;4.57;3.10;;;14.90;99.90;;;;;;5320903;26;20552;-73
2024/04/14 05:30:58;;;;;;;3.30;2.27;;;15.00;99.90;;;;;;5309814;26;20447;-73
2024/04/14 05:33:27;;;;;;;5.20;1.83;;;15.10;99.90;;;;;;5310854;26;20673;-73
2024/04/14 05:35:54;;;;;;;3.27;2.27;;;15.10;99.90;;;;;;5317833;26;20260;-72
2024/04/14 05:38:22;;;;;;;5.00;2.03;;;15.10;99.90;;;;;;5317781;26;20518;-72
2024/04/14 05:40:48;;;;;;;11.07;3.37;;;15.00;99.90;;;;;;5317031;26;20605;-75
2024/04/14 05:43:19;;;;;;;13.40;2.23;;;15.10;99.90;;;;;;5315810;26;20567;-74
2024/04/14 05:45:45;;;;;;;6.30;2.40;;;15.20;99.90;;;;;;5316748;26;20296;-73
2024/04/14 05:48:14;;;;;;;9.03;3.27;;;15.20;99.90;;;;;;5318461;26;20479;-73
2024/04/14 05:50:39;;;;;;;5.00;2.20;;;15.10;99.90;;;;;;5321361;26;20471;-73
2024/04/14 05:53:08;;;;;;;6.93;2.33;;;15.20;99.90;;;;;;5322185;26;20476;-73
2024/04/14 05:55:34;;;;;;;5.27;2.83;;;15.10;99.90;;;;;;5310194;26;20308;-73
2024/04/14 05:58:02;;;;;;;6.00;1.97;;;15.10;99.90;;;;;;5317931;26;21051;-73
2024/04/14 06:00:30;;;;;;;3.37;2.10;;;15.10;99.90;;;;;;5316010;26;20358;-73
2024/04/14 06:02:59;;;;;;;5.43;3.03;;;15.10;99.90;;;;;;5331782;26;20555;-73
2024/04/14 06:05:26;;;;;;;6.00;2.60;;;15.30;99.90;;;;;;5304948;26;20475;-72
2024/04/14 06:07:54;;;;;;;2.90;2.33;;;15.40;99.90;;;;;;5329060;26;20484;-72
2024/04/14 06:10:20;;;;;;;6.93;2.97;;;15.30;99.90;;;;;;5319550;26;20539;-72
2024/04/14 06:12:49;;;;;;;5.60;3.13;;;15.30;99.90;;;;;;5312406;26;20580;-73
2024/04/14 06:15:15;;;;;;;3.67;2.40;;;15.30;99.90;;;;;;5312978;26;20471;-73
2024/04/14 06:17:46;;;;;;;2.43;1.80;;;15.30;99.90;;;;;;5320444;26;21102;-73
2024/04/14 06:20:12;;;;;;;9.63;2.83;;;15.30;99.90;;;;;;5322365;26;20479;-73
2024/04/14 06:22:40;;;;;;;3.60;1.60;;;15.20;99.90;;;;;;5324761;26;20522;-73
2024/04/14 06:25:06;;;;;;;3.93;1.77;;;15.30;99.90;;;;;;5317377;26;20248;-74
2024/04/14 06:27:34;;;;;;;3.00;1.90;;;15.40;99.90;;;;;;5327310;26;20576;-73
2024/04/14 06:30:00;;;;;;;8.20;1.70;;;15.50;99.90;;;;;;5319307;26;21033;-74
2024/04/14 06:32:29;;;;;;;4.10;1.67;;;15.50;99.90;;;;;;5321115;26;20558;-73
2024/04/14 06:34:57;;;;;;;3.77;2.50;;;15.40;99.90;;;;;;5323028;26;20362;-73
2024/04/14 06:37:26;;;;;;;5.90;4.17;;;15.40;99.90;;;;;;5322884;26;20533;-73
2024/04/14 06:39:52;;;;;;;2.80;1.73;;;15.40;99.90;;;;;;5323770;26;20476;-73
2024/04/14 06:42:20;;;;;;;3.00;1.63;;;15.30;99.90;;;;;;5322379;26;21097;-73
2024/04/14 06:44:46;;;;;;;2.40;1.90;;;15.30;99.90;;;;;;5328223;26;20300;-72
2024/04/14 06:47:14;;;;;;;8.00;3.63;;;15.40;99.90;;;;;;5329660;26;20634;-73
2024/04/14 06:49:40;;;;;;;5.40;2.07;;;15.50;99.90;;;;;;5320703;26;20360;-73
2024/04/14 06:52:11;;;;;;;2.17;1.50;;;15.90;99.90;;;;;;5336338;26;20521;-72
2024/04/14 06:54:37;;;;;;;3.37;2.07;;;16.00;99.90;;;;;;5327079;26;20652;-73
2024/04/14 06:57:06;;;;;;;1.73;1.33;;;16.10;99.90;;;;;;5300111;26;20476;-73
2024/04/14 06:59:32;;;;;;;4.23;1.83;;;16.40;99.90;;;;;;5320975;26;20769;-69
2024/04/14 07:01:58;;;;;;;3.10;1.53;;;16.70;99.90;;;;;;5316504;26;20524;-69
2024/04/14 07:04:26;;;;;;;2.53;1.83;;;17.00;99.90;;;;;;5321007;26;20543;-70
2024/04/14 07:06:52;;;;;;;4.00;2.17;;;17.10;99.90;;;;;;5328007;26;20289;-70
2024/04/14 07:09:23;;;;;;;6.03;2.70;;;17.30;99.90;;;;;;5310116;26;20532;-70
2024/04/14 07:11:49;;;;;;;6.10;2.33;;;17.20;99.90;;;;;;5318900;26;20563;-70
2024/04/14 07:14:17;;;;;;;5.07;2.23;;;17.20;99.90;;;;;;5316702;26;20571;-69
2024/04/14 07:16:43;;;;;;;3.87;1.67;;;17.10;99.90;;;;;;5306078;26;20242;-70
2024/04/14 07:19:12;;;;;;;2.00;1.40;;;16.80;99.90;;;;;;5311610;26;20590;-69
2024/04/14 07:21:39;;;;;;;3.97;2.40;;;16.70;99.90;;;;;;5307601;26;20288;-70
2024/04/14 07:24:08;;;;;;;7.50;2.80;;;16.80;99.90;;;;;;5312848;26;20488;-70
2024/04/14 07:26:36;;;;;;;5.17;2.67;;;17.00;99.90;;;;;;5322098;26;20539;-70
2024/04/14 07:29:04;;;;;;;3.50;2.10;;;17.30;99.90;;;;;;5317425;26;21562;-70
2024/04/14 07:31:30;;;;;;;4.00;2.60;;;17.40;99.90;;;;;;5313185;26;20487;-70
2024/04/14 07:34:00;;;;;;;2.50;1.90;;;17.70;99.90;;;;;;5310654;26;20566;-70
2024/04/14 07:36:26;;;;;;;5.23;2.17;;;17.50;99.90;;;;;;5315078;26;20264;-70
2024/04/14 07:38:54;;;;;;;3.13;1.60;;;17.10;99.90;;;;;;5317616;26;20606;-70
2024/04/14 07:41:21;;;;;;;16.57;2.63;;;16.90;99.90;;;;;;5324306;26;20244;-70
2024/04/14 07:43:52;;;;;;;5.20;2.13;;;16.70;99.90;;;;;;5308582;26;20929;-70
2024/04/14 07:46:18;;;;;;;2.97;1.70;;;17.00;99.90;;;;;;5311946;26;20554;-70
2024/04/14 07:48:47;;;;;;;4.13;2.23;;;16.90;99.90;;;;;;5315623;26;20586;-70
2024/04/14 07:51:12;;;;;;;4.20;2.17;;;17.00;99.90;;;;;;5317245;26;22151;-71
2024/04/14 07:53:41;;;;;;;3.43;3.03;;;16.80;99.90;;;;;;5309667;26;20479;-70
2024/04/14 07:56:07;;;;;;;3.90;2.10;;;16.60;99.90;;;;;;5318350;26;20256;-70
2024/04/14 07:58:35;;;;;;;7.30;2.50;;;16.70;99.90;;;;;;5314248;26;20477;-70
2024/04/14 08:01:04;;;;;;;6.27;2.43;;;16.60;99.90;;;;;;5314402;26;20494;-70
2024/04/14 08:03:33;;;;;;;4.23;2.57;;;16.60;99.90;;;;;;5312426;26;20547;-71
2024/04/14 08:05:58;;;;;;;4.93;2.20;;;16.70;99.90;;;;;;5324214;26;20560;-70
2024/04/14 08:08:27;;;;;;;2.00;1.80;;;16.80;99.90;;;;;;5313905;26;21955;-71
2024/04/14 08:10:53;;;;;;;4.80;2.17;;;16.90;99.90;;;;;;5321372;26;20386;-70
2024/04/14 08:13:22;;;;;;;4.80;2.20;;;16.80;99.90;;;;;;5321537;26;20538;-70
2024/04/14 08:15:47;;;;;;;3.90;2.20;;;17.10;99.90;;;;;;5310996;26;20521;-70
2024/04/14 08:18:22;;;;;;;5.27;2.20;;;17.30;99.90;;;;;;5309872;26;20575;-72
2024/04/14 08:20:56;;;;;;;4.60;2.33;;;17.50;99.90;;;;;;5323593;26;20282;-71
2024/04/14 08:23:24;;;;;;;2.30;1.63;;;17.70;99.90;;;;;;5312434;26;21032;-70
2024/04/14 08:25:50;;;;;;;5.43;2.30;;;17.60;99.90;;;;;;5312944;26;21079;-70
2024/04/14 08:28:19;;;;;;;10.00;2.00;;;17.40;99.90;;;;;;5316066;26;20677;-69
2024/04/14 08:30:44;;;;;;;4.73;1.47;;;17.40;99.90;;;;;;5320067;26;20323;-69
2024/04/14 08:33:13;;;;;;;5.57;2.13;;;17.20;99.90;;;;;;5305431;26;20523;-70
2024/04/14 08:35:41;;;;;;;3.43;2.40;;;17.00;99.90;;;;;;5323439;26;20468;-70
2024/04/14 08:38:10;;;;;;;3.20;1.37;;;17.20;99.90;;;;;;5311220;26;21051;-70
2024/04/14 08:40:36;;;;;;;3.70;1.90;;;17.00;99.90;;;;;;5322917;26;20578;-70
2024/04/14 08:43:05;;;;;;;4.70;1.10;;;17.00;99.90;;;;;;5324933;26;20483;-70
2024/04/14 08:45:32;;;;;;;2.80;1.57;;;16.70;99.90;;;;;;5318740;26;20248;-69
2024/04/14 08:48:02;;;;;;;7.43;2.80;;;16.50;99.90;;;;;;5324670;26;21258;-69
2024/04/14 08:50:29;;;;;;;5.43;1.50;;;16.80;99.90;;;;;;5315364;26;21050;-69
2024/04/14 08:53:01;;;;;;;1.50;1.27;;;17.40;99.90;;;;;;5318024;26;20501;-70
2024/04/14 08:55:27;;;;;;;1.60;1.23;;;17.60;99.90;;;;;;5314273;26;20534;-71
2024/04/14 08:57:56;;;;;;;2.20;1.90;;;17.80;99.90;;;;;;5312878;26;20573;-71
2024/04/14 09:00:23;;;;;;;5.57;1.93;;;18.30;99.90;;;;;;5340170;21;21443;-69
2024/04/14 09:02:52;;;;;;;4.00;1.77;;;18.60;99.90;;;;;;5357164;26;20830;-71
2024/04/14 09:05:20;;;;;;;2.60;1.37;;;18.90;99.90;;;;;;5364578;26;20474;-71
2024/04/14 09:07:56;;;;;;;2.27;1.50;;;19.40;99.90;;;;;;5340939;26;20522;-71
2024/04/14 09:10:24;;;;;;;2.80;1.80;;;20.10;99.90;;;;;;5348545;26;20541;-70
2024/04/14 09:12:53;;;;;;;7.17;1.50;;;19.80;99.90;;;;;;5343661;26;20538;-71
2024/04/14 09:15:19;;;;;;;2.20;1.20;;;20.10;99.90;;;;;;5344791;26;20479;-71
2024/04/14 09:17:47;;;;;;;4.50;1.70;;;21.20;99.90;;;;;;5346606;26;20583;-72
2024/04/14 09:20:13;;;;;;;5.03;1.83;;;22.10;99.90;;;;;;5352585;26;20235;-72
2024/04/14 09:22:42;;;;;;;4.67;1.77;;;22.50;99.90;;;;;;5347834;26;20474;-71
2024/04/14 09:25:08;;;;;;;6.00;1.60;;;22.50;99.90;;;;;;5353219;26;20237;-72
2024/04/14 09:27:39;;;;;;;2.03;1.50;;;22.90;99.90;;;;;;5348488;26;21032;-70
2024/04/14 09:30:15;;;;;;;2.92;1.52;;;23.30;99.90;;;;;;5343221;26;20397;-70
2024/04/14 09:32:44;;;;;;;2.43;1.40;;;23.60;97.80;;;;;;5345499;26;20756;-70
2024/04/14 09:35:10;;;;;;;4.53;1.53;;;23.00;97.90;;;;;;5349100;26;20742;-70
2024/04/14 09:37:38;;;;;;;2.17;1.97;;;22.60;97.00;;;;;;5352840;26;20591;-70
2024/04/14 09:40:09;;;;;;;2.80;1.40;;;22.50;97.30;;;;;;5347841;26;20479;-71
2024/04/14 09:42:40;;;;;;;2.97;1.20;;;21.40;98.00;;;;;;5352256;26;20611;-71
2024/04/14 09:45:07;;;;;;;10.97;1.50;;;20.90;96.30;;;;;;5350094;26;20552;-70
2024/04/14 09:47:37;;;;;;;2.60;1.23;;;20.20;96.80;;;;;;5354331;26;20884;-71
2024/04/14 09:50:06;;;;;;;27.67;1.77;;;19.80;98.40;;;;;;5352841;26;20574;-70
2024/04/14 09:52:35;;;;;;;8.33;1.47;;;19.40;98.40;;;;;;5347616;26;20604;-71
2024/04/14 09:55:04;;;;;;;6.90;2.07;;;19.40;99.60;;;;;;5344987;26;20595;-70
2024/04/14 09:57:34;;;;;;;1.70;1.20;;;19.80;99.40;;;;;;5348218;26;20998;-70
2024/04/14 10:00:03;;;;;;;5.53;1.40;;;20.00;99.60;;;;;;5348112;26;20892;-70
2024/04/14 10:02:37;;;;;;;2.70;1.07;;;19.80;99.00;;;;;;5356684;26;20509;-70
2024/04/14 10:05:04;;;;;;;4.20;1.53;;;19.30;98.60;;;;;;5350031;26;20485;-69
2024/04/14 10:07:32;;;;;;;4.73;1.60;;;19.10;99.40;;;;;;5342651;26;20488;-71
2024/04/14 10:09:59;;;;;;;3.10;1.90;;;19.10;99.90;;;;;;5349680;26;20618;-70
2024/04/14 10:12:28;;;;;;;3.30;1.20;;;19.70;99.90;;;;;;5358046;26;20616;-69
2024/04/14 10:14:56;;;;;;;6.23;1.60;;;19.60;99.90;;;;;;5354104;26;20534;-70
2024/04/14 10:17:30;;;;;;;5.10;1.40;;;19.40;97.40;;;;;;5351910;26;20526;-70
2024/04/14 10:19:57;;;;;;;4.90;1.37;;;18.80;97.40;;;;;;5346300;26;20525;-70
2024/04/14 10:22:32;;;;;;;2.13;1.40;;;18.80;98.80;;;;;;5349065;26;20527;-71
2024/04/14 10:24:58;;;;;;;2.83;1.60;;;19.00;99.20;;;;;;5342676;26;20589;-71
2024/04/14 10:27:26;;;;;;;7.83;1.37;;;19.00;98.80;;;;;;5348491;26;21818;-71
2024/04/14 10:29:56;;;;;;;4.80;1.43;;;19.10;99.90;;;;;;5348439;26;20240;-70
2024/04/14 10:32:27;;;;;;;1.40;1.30;;;19.40;98.90;;;;;;5343638;26;20867;-71
2024/04/14 10:34:54;;;;;;;5.97;2.20;;;19.40;99.30;;;;;;5356129;26;20482;-71
2024/04/14 10:37:27;;;;;;;3.70;1.50;;;19.90;99.40;;;;;;5348737;26;20467;-71
2024/04/14 10:39:54;;;;;;;3.40;1.73;;;20.60;99.00;;;;;;5345744;26;20481;-71
2024/04/14 10:42:23;;;;;;;4.00;1.67;;;21.20;97.40;;;;;;5350343;26;20628;-71
2024/04/14 10:44:49;;;;;;;2.60;1.30;;;21.90;98.30;;;;;;5350259;26;21019;-71
2024/04/14 10:47:19;;;;;;;4.13;1.47;;;21.20;97.00;;;;;;5341643;26;20593;-71
2024/04/14 10:49:48;;;;;;;3.00;1.70;;;21.10;97.50;;;;;;5340746;26;20473;-71
2024/04/14 10:52:18;;;;;;;2.27;1.30;;;21.30;96.10;;;;;;5346462;26;20523;-72
2024/04/14 10:54:44;;;;;;;1.43;1.13;;;21.40;96.40;;;;;;5353581;26;21522;-70
2024/04/14 10:57:13;;;;;;;4.17;1.40;;;21.30;94.50;;;;;;5342916;26;20471;-71
2024/04/14 10:59:39;;;;;;;3.10;1.10;;;20.40;94.90;;;;;;5354019;26;20829;-71
2024/04/14 11:02:07;;;;;;;2.67;1.40;;;20.80;95.40;;;;;;5339433;26;20481;-69
2024/04/14 11:04:34;;;;;;;3.47;1.40;;;21.40;94.30;;;;;;5348466;26;21467;-70
2024/04/14 11:07:06;;;;;;;3.80;1.47;;;22.20;93.80;;;;;;5349554;26;20489;-70
2024/04/14 11:09:32;;;;;;;1.60;1.10;;;22.90;94.00;;;;;;5353198;26;20929;-70
2024/04/14 11:12:03;;;;;;;2.90;1.00;;;22.90;92.50;;;;;;5355896;26;20486;-70
2024/04/14 11:14:29;;;;;;;3.63;1.57;;;23.50;92.70;;;;;;5345609;26;20482;-70
2024/04/14 11:16:57;;;;;;;5.07;1.43;;;23.30;93.10;;;;;;5347304;26;20592;-70
2024/04/14 11:19:25;;;;;;;2.57;1.27;;;22.80;93.40;;;;;;5342309;26;21241;-70
2024/04/14 11:21:53;;;;;;;4.70;1.60;;;21.90;93.40;;;;;;5353621;26;21054;-70
2024/04/14 11:24:21;;;;;;;1.60;1.30;;;21.50;95.50;;;;;;5344228;26;20550;-69
2024/04/14 11:26:50;;;;;;;2.90;1.53;;;20.90;94.10;;;;;;5354623;26;20555;-70
2024/04/14 11:29:16;;;;;;;2.47;1.30;;;19.80;94.80;;;;;;5350291;26;20539;-70
2024/04/14 11:31:45;;;;;;;5.23;1.77;;;19.40;96.40;;;;;;5342741;26;20485;-69
2024/04/14 11:34:12;;;;;;;4.50;1.30;;;19.00;95.30;;;;;;5351893;26;21331;-70
2024/04/14 11:36:41;;;;;;;4.73;1.67;;;19.10;96.70;;;;;;5351713;26;20466;-70
2024/04/14 11:39:07;;;;;;;3.97;1.43;;;19.60;96.40;;;;;;5347893;26;20950;-70
2024/04/14 11:41:39;;;;;;;4.73;1.50;;;20.10;95.50;;;;;;5353294;26;20474;-71
2024/04/14 11:44:06;;;;;;;4.77;1.47;;;21.00;95.80;;;;;;5342558;26;20313;-70
2024/04/14 11:46:35;;;;;;;2.57;1.27;;;21.30;94.30;;;;;;5350510;26;20807;-70
2024/04/14 11:49:01;;;;;;;3.70;1.17;;;21.10;93.40;;;;;;5344095;26;20539;-71
2024/04/14 11:51:29;;;;;;;3.90;1.80;;;21.10;92.90;;;;;;5351402;26;20490;-70
2024/04/14 11:53:55;;;;;;;1.50;1.10;;;21.00;93.80;;;;;;5348397;26;20355;-70
2024/04/14 11:56:23;;;;;;;1.70;1.20;;;20.50;92.80;;;;;;5366601;26;20602;-70
2024/04/14 11:58:52;;;;;;;1.67;0.90;;;20.10;93.60;;;;;;5352617;26;22160;-70
2024/04/14 12:01:20;;;;;;;1.83;1.20;;;19.80;92.80;;;;;;5349901;26;20535;-69
2024/04/14 12:03:46;;;;;;;6.80;1.50;;;19.10;93.20;;;;;;5356654;26;20598;-70
2024/04/14 12:06:14;;;;;;;1.87;1.03;;;19.10;94.30;;;;;;5350632;26;23292;-70
2024/04/14 12:08:40;;;;;;;1.80;1.10;;;19.20;94.00;;;;;;5352391;26;21072;-70
2024/04/14 12:11:09;;;;;;;2.63;1.77;;;19.10;92.90;;;;;;5345968;26;20478;-70
2024/04/14 12:13:34;;;;;;;7.70;1.23;;;18.70;92.30;;;;;;5348367;26;20497;-70
2024/04/14 12:16:06;;;;;;;1.20;1.10;;;18.50;91.90;;;;;;5352433;26;20495;-70
2024/04/14 12:18:32;;;;;;;1.40;1.10;;;18.30;92.90;;;;;;5351343;26;20304;-70
2024/04/14 12:21:00;;;;;;;1.77;1.40;;;18.50;92.50;;;;;;5352777;26;20612;-69
2024/04/14 12:23:26;;;;;;;4.70;1.57;;;18.70;92.40;;;;;;5340502;26;20254;-70
2024/04/14 12:25:54;;;;;;;2.30;1.40;;;18.90;92.20;;;;;;5357030;26;20522;-70
2024/04/14 12:28:20;;;;;;;5.10;1.67;;;19.70;91.90;;;;;;5350200;26;20274;-69
2024/04/14 12:30:49;;;;;;;1.80;1.00;;;19.70;91.00;;;;;;5345198;26;20526;-69
2024/04/14 12:33:17;;;;;;;4.83;3.20;;;20.40;91.00;;;;;;5354825;26;20340;-70
2024/04/14 12:35:46;;;;;;;4.90;1.30;;;20.30;89.60;;;;;;5352636;26;20838;-70
2024/04/14 12:38:11;;;;;;;2.23;1.40;;;20.30;90.80;;;;;;5355731;26;20559;-70
2024/04/14 12:40:40;;;;;;;3.50;1.80;;;20.90;89.90;;;;;;5362841;26;20974;-70
2024/04/14 12:43:06;;;;;;;2.57;1.30;;;21.10;90.50;;;;;;5352634;26;20256;-70
2024/04/14 12:45:36;;;;;;;2.90;1.33;;;20.80;89.20;;;;;;5358519;26;20547;-70
2024/04/14 12:48:02;;;;;;;2.23;1.10;;;20.90;90.30;;;;;;5355660;26;20356;-71